sensor_id;sensor_type;location;lat;lon;timestamp;pressure;altitude;pressure_sealevel;temperature;humidity
19761;BME280;10039;42.632;23.408;2022-09-12T00:01:25;94733.75;;;18.24;70.21
19761;BME280;10039;42.632;23.408;2022-09-12T00:03:53;94743.34;;;18.25;70.32
19761;BME280;10039;42.632;23.408;2022-09-12T00:06:21;94778.66;;;18.36;71.04
19761;BME280;10039;42.632;23.408;2022-09-12T00:08:47;94778.94;;;18.38;70.47
19761;BME280;10039;42.632;23.408;2022-09-12T00:11:13;94788.25;;;18.37;70.17
19761;BME280;10039;42.632;23.408;2022-09-12T00:13:40;94746.00;;;18.11;70.01
19761;BME280;10039;42.632;23.408;2022-09-12T00:16:12;94741.31;;;18.11;69.83
19761;BME280;10039;42.632;23.408;2022-09-12T00:18:39;94797.13;;;18.38;70.31
19761;BME280;10039;42.632;23.408;2022-09-12T00:21:04;94753.06;;;18.08;70.36
19761;BME280;10039;42.632;23.408;2022-09-12T00:23:31;94792.72;;;18.26;69.99
19761;BME280;10039;42.632;23.408;2022-09-12T00:25:58;94782.13;;;18.13;70.21
19761;BME280;10039;42.632;23.408;2022-09-12T00:28:23;94765.28;;;17.81;70.29
19761;BME280;10039;42.632;23.408;2022-09-12T00:30:49;94794.47;;;17.91;70.94
19761;BME280;10039;42.632;23.408;2022-09-12T00:33:16;94800.47;;;18.09;70.44
19761;BME280;10039;42.632;23.408;2022-09-12T00:35:47;94799.13;;;17.91;70.21
19761;BME280;10039;42.632;23.408;2022-09-12T00:38:14;94810.03;;;17.96;70.35
19761;BME280;10039;42.632;23.408;2022-09-12T00:40:41;94796.44;;;17.91;70.49
19761;BME280;10039;42.632;23.408;2022-09-12T00:45:58;94798.94;;;17.94;70.57
19761;BME280;10039;42.632;23.408;2022-09-12T00:48:31;94809.22;;;18.04;70.21
19761;BME280;10039;42.632;23.408;2022-09-12T00:50:58;94808.19;;;18.02;70.41
19761;BME280;10039;42.632;23.408;2022-09-12T00:53:24;94779.28;;;17.79;70.63
19761;BME280;10039;42.632;23.408;2022-09-12T00:55:51;94805.78;;;18.04;70.18
19761;BME280;10039;42.632;23.408;2022-09-12T00:58:19;94798.41;;;18.04;70.28
19761;BME280;10039;42.632;23.408;2022-09-12T01:00:46;94771.44;;;17.81;70.01
19761;BME280;10039;42.632;23.408;2022-09-12T01:03:14;94798.13;;;18.02;69.82
19761;BME280;10039;42.632;23.408;2022-09-12T01:06:25;94772.00;;;17.85;69.60
19761;BME280;10039;42.632;23.408;2022-09-12T01:08:51;94785.06;;;17.87;70.28
19761;BME280;10039;42.632;23.408;2022-09-12T01:11:19;94791.88;;;17.97;70.31
19761;BME280;10039;42.632;23.408;2022-09-12T01:13:45;94759.31;;;17.77;70.19
19761;BME280;10039;42.632;23.408;2022-09-12T01:16:12;94755.13;;;17.76;70.25
19761;BME280;10039;42.632;23.408;2022-09-12T01:21:40;94776.72;;;17.76;70.65
19761;BME280;10039;42.632;23.408;2022-09-12T01:38:31;94742.66;;;17.40;69.44
19761;BME280;10039;42.632;23.408;2022-09-12T01:46:20;94772.81;;;17.53;69.50
19761;BME280;10039;42.632;23.408;2022-09-12T01:51:53;94756.94;;;17.32;69.41
19761;BME280;10039;42.632;23.408;2022-09-12T01:54:26;94773.78;;;17.50;69.53
19761;BME280;10039;42.632;23.408;2022-09-12T01:56:56;94768.19;;;17.54;69.37
19761;BME280;10039;42.632;23.408;2022-09-12T01:59:29;94739.56;;;17.24;69.38
19761;BME280;10039;42.632;23.408;2022-09-12T02:02:14;94780.38;;;17.49;69.53
19761;BME280;10039;42.632;23.408;2022-09-12T02:04:55;94740.78;;;17.23;69.03
19761;BME280;10039;42.632;23.408;2022-09-12T02:07:39;94743.47;;;17.23;69.03
19761;BME280;10039;42.632;23.408;2022-09-12T02:10:14;94751.53;;;17.32;69.05
19761;BME280;10039;42.632;23.408;2022-09-12T02:12:52;94747.94;;;17.26;69.07
19761;BME280;10039;42.632;23.408;2022-09-12T02:15:25;94765.03;;;17.32;69.55
19761;BME280;10039;42.632;23.408;2022-09-12T02:17:53;94767.84;;;17.28;69.33
19761;BME280;10039;42.632;23.408;2022-09-12T02:20:27;94747.75;;;17.06;68.72
19761;BME280;10039;42.632;23.408;2022-09-12T02:22:55;94751.03;;;17.10;68.99
19761;BME280;10039;42.632;23.408;2022-09-12T02:25:23;94781.34;;;17.28;68.99
19761;BME280;10039;42.632;23.408;2022-09-12T02:27:53;94750.44;;;17.06;68.75
19761;BME280;10039;42.632;23.408;2022-09-12T02:30:21;94788.00;;;17.18;69.22
19761;BME280;10039;42.632;23.408;2022-09-12T02:33:06;94786.94;;;17.16;69.22
19761;BME280;10039;42.632;23.408;2022-09-12T02:35:46;94769.44;;;17.11;69.07
19761;BME280;10039;42.632;23.408;2022-09-12T02:39:02;94753.53;;;16.90;69.07
19761;BME280;10039;42.632;23.408;2022-09-12T02:41:03;94783.38;;;17.10;69.49
19761;BME280;10039;42.632;23.408;2022-09-12T02:43:29;94788.78;;;17.10;69.03
19761;BME280;10039;42.632;23.408;2022-09-12T02:45:54;94784.72;;;17.14;68.54
19761;BME280;10039;42.632;23.408;2022-09-12T02:48:23;94790.41;;;17.16;69.05
19761;BME280;10039;42.632;23.408;2022-09-12T02:50:51;94776.38;;;17.03;68.80
19761;BME280;10039;42.632;23.408;2022-09-12T02:53:17;94796.09;;;17.18;68.57
19761;BME280;10039;42.632;23.408;2022-09-12T02:55:43;94782.47;;;17.13;68.99
19761;BME280;10039;42.632;23.408;2022-09-12T02:58:12;94786.06;;;17.10;68.64
19761;BME280;10039;42.632;23.408;2022-09-12T03:00:47;94782.53;;;17.04;68.71
19761;BME280;10039;42.632;23.408;2022-09-12T03:03:34;94770.91;;;16.80;68.63
19761;BME280;10039;42.632;23.408;2022-09-12T03:08:59;94802.03;;;16.90;68.96
19761;BME280;10039;42.632;23.408;2022-09-12T03:25:17;94798.16;;;16.91;69.46
19761;BME280;10039;42.632;23.408;2022-09-12T03:28:02;94795.78;;;16.84;69.12
19761;BME280;10039;42.632;23.408;2022-09-12T03:30:46;94779.19;;;16.68;69.38
19761;BME280;10039;42.632;23.408;2022-09-12T03:33:14;94787.72;;;16.75;69.49
19761;BME280;10039;42.632;23.408;2022-09-12T03:35:40;94793.97;;;16.81;69.34
19761;BME280;10039;42.632;23.408;2022-09-12T03:38:06;94782.78;;;16.74;69.11
19761;BME280;10039;42.632;23.408;2022-09-12T03:40:36;94799.06;;;16.88;69.46
19761;BME280;10039;42.632;23.408;2022-09-12T03:43:05;94775.72;;;16.76;69.52
19761;BME280;10039;42.632;23.408;2022-09-12T03:45:32;94779.50;;;16.70;69.59
19761;BME280;10039;42.632;23.408;2022-09-12T03:47:58;94799.53;;;16.87;69.44
19761;BME280;10039;42.632;23.408;2022-09-12T03:50:23;94799.66;;;16.83;69.39
19761;BME280;10039;42.632;23.408;2022-09-12T03:52:49;94783.53;;;16.74;69.60
19761;BME280;10039;42.632;23.408;2022-09-12T03:55:14;94788.00;;;16.77;69.68
19761;BME280;10039;42.632;23.408;2022-09-12T03:57:40;94801.78;;;16.79;69.42
19761;BME280;10039;42.632;23.408;2022-09-12T04:00:07;94796.56;;;16.76;69.60
19761;BME280;10039;42.632;23.408;2022-09-12T04:02:35;94790.44;;;16.66;69.32
19761;BME280;10039;42.632;23.408;2022-09-12T04:05:00;94794.28;;;16.83;69.31
19761;BME280;10039;42.632;23.408;2022-09-12T04:07:26;94787.41;;;16.73;69.19
19761;BME280;10039;42.632;23.408;2022-09-12T04:09:52;94785.06;;;16.57;69.28
19761;BME280;10039;42.632;23.408;2022-09-12T04:12:18;94777.88;;;16.63;69.53
19761;BME280;10039;42.632;23.408;2022-09-12T04:14:44;94807.16;;;16.79;69.75
19761;BME280;10039;42.632;23.408;2022-09-12T04:17:10;94778.78;;;16.51;69.75
19761;BME280;10039;42.632;23.408;2022-09-12T04:19:35;94798.53;;;16.66;69.62
19761;BME280;10039;42.632;23.408;2022-09-12T04:22:01;94803.75;;;16.70;69.62
19761;BME280;10039;42.632;23.408;2022-09-12T04:24:26;94786.75;;;16.55;69.79
19761;BME280;10039;42.632;23.408;2022-09-12T04:26:52;94786.56;;;16.58;69.92
19761;BME280;10039;42.632;23.408;2022-09-12T04:29:17;94795.56;;;16.55;69.67
19761;BME280;10039;42.632;23.408;2022-09-12T04:31:45;94793.03;;;16.52;69.78
19761;BME280;10039;42.632;23.408;2022-09-12T04:34:11;94826.22;;;16.76;69.52
19761;BME280;10039;42.632;23.408;2022-09-12T04:36:37;94828.13;;;16.75;69.88
19761;BME280;10039;42.632;23.408;2022-09-12T04:39:03;94819.91;;;16.79;69.33
19761;BME280;10039;42.632;23.408;2022-09-12T04:41:31;94821.53;;;16.85;69.60
19761;BME280;10039;42.632;23.408;2022-09-12T04:44:00;94813.81;;;16.69;69.46
19761;BME280;10039;42.632;23.408;2022-09-12T04:46:27;94806.00;;;16.71;69.12
19761;BME280;10039;42.632;23.408;2022-09-12T04:48:53;94811.53;;;16.77;69.33
19761;BME280;10039;42.632;23.408;2022-09-12T04:51:21;94803.88;;;16.75;69.19
19761;BME280;10039;42.632;23.408;2022-09-12T04:53:49;94833.31;;;16.96;69.45
19761;BME280;10039;42.632;23.408;2022-09-12T04:56:15;94811.63;;;16.91;69.22
19761;BME280;10039;42.632;23.408;2022-09-12T04:58:41;94817.16;;;16.96;69.01
19761;BME280;10039;42.632;23.408;2022-09-12T05:01:16;94819.41;;;16.98;69.12
19761;BME280;10039;42.632;23.408;2022-09-12T05:03:43;94832.41;;;17.08;69.47
19761;BME280;10039;42.632;23.408;2022-09-12T05:06:12;94811.31;;;16.98;69.08
19761;BME280;10039;42.632;23.408;2022-09-12T05:08:39;94798.16;;;16.91;69.26
19761;BME280;10039;42.632;23.408;2022-09-12T05:11:08;94818.91;;;17.08;68.97
19761;BME280;10039;42.632;23.408;2022-09-12T05:13:35;94809.63;;;17.09;69.48
19761;BME280;10039;42.632;23.408;2022-09-12T05:16:02;94826.19;;;17.26;69.02
19761;BME280;10039;42.632;23.408;2022-09-12T05:18:30;94807.91;;;17.21;68.73
19761;BME280;10039;42.632;23.408;2022-09-12T05:20:58;94794.16;;;17.10;68.73
19761;BME280;10039;42.632;23.408;2022-09-12T05:23:27;94823.19;;;17.33;68.46
19761;BME280;10039;42.632;23.408;2022-09-12T05:25:55;94826.72;;;17.39;68.52
19761;BME280;10039;42.632;23.408;2022-09-12T05:28:22;94820.13;;;17.40;68.12
19761;BME280;10039;42.632;23.408;2022-09-12T05:31:01;94825.22;;;17.38;68.57
19761;BME280;10039;42.632;23.408;2022-09-12T05:33:27;94818.22;;;17.31;68.46
19761;BME280;10039;42.632;23.408;2022-09-12T05:35:52;94822.28;;;17.27;68.34
19761;BME280;10039;42.632;23.408;2022-09-12T05:38:18;94820.19;;;17.31;67.59
19761;BME280;10039;42.632;23.408;2022-09-12T05:40:43;94797.31;;;17.17;67.67
19761;BME280;10039;42.632;23.408;2022-09-12T05:43:09;94820.31;;;17.27;68.36
19761;BME280;10039;42.632;23.408;2022-09-12T05:45:37;94819.91;;;17.20;68.23
19761;BME280;10039;42.632;23.408;2022-09-12T05:48:03;94815.41;;;17.17;68.18
19761;BME280;10039;42.632;23.408;2022-09-12T05:50:28;94797.00;;;17.15;68.34
19761;BME280;10039;42.632;23.408;2022-09-12T05:52:54;94807.44;;;17.31;67.67
19761;BME280;10039;42.632;23.408;2022-09-12T05:55:20;94800.69;;;17.36;67.54
19761;BME280;10039;42.632;23.408;2022-09-12T05:57:47;94795.91;;;17.31;68.07
19761;BME280;10039;42.632;23.408;2022-09-12T06:00:13;94796.38;;;17.20;67.85
19761;BME280;10039;42.632;23.408;2022-09-12T06:02:39;94789.66;;;17.16;67.39
19761;BME280;10039;42.632;23.408;2022-09-12T06:05:05;94805.03;;;17.24;67.65
19761;BME280;10039;42.632;23.408;2022-09-12T06:07:30;94788.41;;;17.26;67.35
19761;BME280;10039;42.632;23.408;2022-09-12T06:09:57;94780.47;;;17.31;67.07
19761;BME280;10039;42.632;23.408;2022-09-12T06:12:24;94786.53;;;17.41;67.46
19761;BME280;10039;42.632;23.408;2022-09-12T06:14:51;94752.75;;;17.22;67.33
19761;BME280;10039;42.632;23.408;2022-09-12T06:17:17;94762.47;;;17.28;66.39
19761;BME280;10039;42.632;23.408;2022-09-12T06:19:43;94787.56;;;17.52;66.56
19761;BME280;10039;42.632;23.408;2022-09-12T06:22:09;94784.91;;;17.67;66.80
19761;BME280;10039;42.632;23.408;2022-09-12T06:24:35;94776.81;;;17.67;65.67
19761;BME280;10039;42.632;23.408;2022-09-12T06:27:00;94792.03;;;17.93;65.23
19761;BME280;10039;42.632;23.408;2022-09-12T06:29:27;94794.13;;;17.98;65.45
19761;BME280;10039;42.632;23.408;2022-09-12T06:31:52;94792.88;;;17.85;64.32
19761;BME280;10039;42.632;23.408;2022-09-12T06:34:18;94796.09;;;17.98;64.81
19761;BME280;10039;42.632;23.408;2022-09-12T06:36:48;94801.97;;;18.10;64.39
19761;BME280;10039;42.632;23.408;2022-09-12T06:39:16;94799.09;;;18.14;64.03
19761;BME280;10039;42.632;23.408;2022-09-12T06:41:42;94777.09;;;18.06;64.26
19761;BME280;10039;42.632;23.408;2022-09-12T06:44:11;94792.88;;;18.22;63.48
19761;BME280;10039;42.632;23.408;2022-09-12T06:46:37;94800.09;;;18.25;63.55
19761;BME280;10039;42.632;23.408;2022-09-12T06:49:02;94809.41;;;18.39;63.75
19761;BME280;10039;42.632;23.408;2022-09-12T06:51:28;94807.16;;;18.37;63.79
19761;BME280;10039;42.632;23.408;2022-09-12T06:53:55;94817.41;;;18.33;63.62
19761;BME280;10039;42.632;23.408;2022-09-12T06:56:23;94815.56;;;18.39;63.70
19761;BME280;10039;42.632;23.408;2022-09-12T06:58:50;94816.03;;;18.38;63.33
19761;BME280;10039;42.632;23.408;2022-09-12T07:01:19;94831.97;;;18.50;63.50
19761;BME280;10039;42.632;23.408;2022-09-12T07:03:50;94819.50;;;18.67;63.77
19761;BME280;10039;42.632;23.408;2022-09-12T07:06:19;94808.50;;;18.56;62.14
19761;BME280;10039;42.632;23.408;2022-09-12T07:08:45;94804.75;;;18.39;62.92
19761;BME280;10039;42.632;23.408;2022-09-12T07:11:22;94842.91;;;18.70;62.82
19761;BME280;10039;42.632;23.408;2022-09-12T07:13:53;94847.28;;;18.68;62.59
19761;BME280;10039;42.632;23.408;2022-09-12T07:16:19;94845.44;;;18.88;62.80
19761;BME280;10039;42.632;23.408;2022-09-12T07:18:56;94816.78;;;18.67;62.26
19761;BME280;10039;42.632;23.408;2022-09-12T07:21:22;94843.19;;;18.72;61.74
19761;BME280;10039;42.632;23.408;2022-09-12T07:23:48;94842.81;;;18.79;61.82
19761;BME280;10039;42.632;23.408;2022-09-12T07:26:15;94839.81;;;18.77;62.22
19761;BME280;10039;42.632;23.408;2022-09-12T07:28:42;94816.91;;;18.87;61.98
19761;BME280;10039;42.632;23.408;2022-09-12T07:31:15;94818.53;;;18.99;61.06
19761;BME280;10039;42.632;23.408;2022-09-12T07:33:42;94835.16;;;19.35;60.82
19761;BME280;10039;42.632;23.408;2022-09-12T07:36:13;94843.34;;;19.41;61.22
19761;BME280;10039;42.632;23.408;2022-09-12T07:38:40;94829.69;;;19.50;61.31
19761;BME280;10039;42.632;23.408;2022-09-12T07:41:14;94844.59;;;19.60;60.18
19761;BME280;10039;42.632;23.408;2022-09-12T07:43:40;94841.09;;;19.74;60.12
19761;BME280;10039;42.632;23.408;2022-09-12T07:46:09;94839.72;;;19.64;58.96
19761;BME280;10039;42.632;23.408;2022-09-12T07:48:35;94826.13;;;19.58;58.95
19761;BME280;10039;42.632;23.408;2022-09-12T07:51:03;94830.97;;;19.89;59.44
19761;BME280;10039;42.632;23.408;2022-09-12T07:53:31;94829.66;;;20.19;58.86
19761;BME280;10039;42.632;23.408;2022-09-12T07:55:58;94830.78;;;20.32;57.74
19761;BME280;10039;42.632;23.408;2022-09-12T07:58:24;94828.44;;;20.45;58.13
19761;BME280;10039;42.632;23.408;2022-09-12T08:00:49;94812.63;;;20.18;57.05
19761;BME280;10039;42.632;23.408;2022-09-12T08:03:15;94826.22;;;20.24;56.66
19761;BME280;10039;42.632;23.408;2022-09-12T08:05:41;94830.56;;;20.35;56.62
19761;BME280;10039;42.632;23.408;2022-09-12T08:08:06;94821.88;;;20.32;56.95
19761;BME280;10039;42.632;23.408;2022-09-12T08:10:32;94794.94;;;20.23;55.69
19761;BME280;10039;42.632;23.408;2022-09-12T08:12:57;94822.84;;;20.29;55.08
19761;BME280;10039;42.632;23.408;2022-09-12T08:15:23;94796.16;;;19.82;55.88
19761;BME280;10039;42.632;23.408;2022-09-12T08:17:49;94826.31;;;20.09;55.50
19761;BME280;10039;42.632;23.408;2022-09-12T08:20:15;94845.03;;;20.07;55.24
19761;BME280;10039;42.632;23.408;2022-09-12T08:22:41;94821.09;;;19.86;55.36
19761;BME280;10039;42.632;23.408;2022-09-12T08:25:07;94843.97;;;19.85;56.32
19761;BME280;10039;42.632;23.408;2022-09-12T08:27:33;94814.06;;;19.59;56.31
19761;BME280;10039;42.632;23.408;2022-09-12T08:29:58;94818.38;;;19.86;56.68
19761;BME280;10039;42.632;23.408;2022-09-12T08:32:25;94836.00;;;20.16;55.96
19761;BME280;10039;42.632;23.408;2022-09-12T08:34:50;94835.66;;;20.28;55.86
19761;BME280;10039;42.632;23.408;2022-09-12T08:37:16;94809.44;;;20.20;55.31
19761;BME280;10039;42.632;23.408;2022-09-12T08:39:41;94832.09;;;20.17;56.55
19761;BME280;10039;42.632;23.408;2022-09-12T08:42:09;94833.69;;;20.29;56.30
19761;BME280;10039;42.632;23.408;2022-09-12T08:47:31;94824.03;;;20.47;55.23
19761;BME280;10039;42.632;23.408;2022-09-12T08:52:53;94804.53;;;20.24;53.84
19761;BME280;10039;42.632;23.408;2022-09-12T08:55:39;94831.13;;;20.20;55.61
19761;BME280;10039;42.632;23.408;2022-09-12T08:58:27;94812.44;;;20.22;56.24
19761;BME280;10039;42.632;23.408;2022-09-12T09:01:15;94830.59;;;20.16;55.43
19761;BME280;10039;42.632;23.408;2022-09-12T09:06:58;94825.78;;;20.05;56.03
19761;BME280;10039;42.632;23.408;2022-09-12T09:09:43;94813.75;;;19.92;56.27
19761;BME280;10039;42.632;23.408;2022-09-12T09:15:06;94801.31;;;20.00;55.85
19761;BME280;10039;42.632;23.408;2022-09-12T09:17:44;94804.13;;;20.31;55.66
19761;BME280;10039;42.632;23.408;2022-09-12T09:23:20;94790.84;;;20.07;54.93
19761;BME280;10039;42.632;23.408;2022-09-12T09:28:25;94799.19;;;20.29;54.97
19761;BME280;10039;42.632;23.408;2022-09-12T09:30:54;94801.81;;;20.43;53.73
19761;BME280;10039;42.632;23.408;2022-09-12T09:33:23;94763.19;;;20.03;53.95
19761;BME280;10039;42.632;23.408;2022-09-12T09:36:28;94766.69;;;20.09;54.31
19761;BME280;10039;42.632;23.408;2022-09-12T09:39:03;94807.53;;;20.26;52.98
19761;BME280;10039;42.632;23.408;2022-09-12T09:44:04;94789.53;;;20.23;54.31
19761;BME280;10039;42.632;23.408;2022-09-12T09:46:30;94762.28;;;20.12;54.66
19761;BME280;10039;42.632;23.408;2022-09-12T09:48:59;94779.63;;;20.00;53.71
19761;BME280;10039;42.632;23.408;2022-09-12T09:51:33;94787.63;;;20.09;53.40
19761;BME280;10039;42.632;23.408;2022-09-12T09:56:38;94789.09;;;20.30;55.21
19761;BME280;10039;42.632;23.408;2022-09-12T09:59:12;94759.84;;;20.14;54.74
19761;BME280;10039;42.632;23.408;2022-09-12T10:01:51;94779.69;;;20.50;54.64
19761;BME280;10039;42.632;23.408;2022-09-12T10:04:24;94759.91;;;20.44;54.60
19761;BME280;10039;42.632;23.408;2022-09-12T10:06:51;94770.81;;;20.50;54.13
19761;BME280;10039;42.632;23.408;2022-09-12T10:09:27;94776.91;;;20.70;53.86
19761;BME280;10039;42.632;23.408;2022-09-12T10:11:54;94794.38;;;20.64;53.07
19761;BME280;10039;42.632;23.408;2022-09-12T10:14:36;94758.63;;;20.40;53.40
19761;BME280;10039;42.632;23.408;2022-09-12T10:17:22;94778.34;;;20.40;53.07
19761;BME280;10039;42.632;23.408;2022-09-12T10:19:48;94766.94;;;20.31;52.90
19761;BME280;10039;42.632;23.408;2022-09-12T10:22:19;94745.28;;;20.11;52.55
19761;BME280;10039;42.632;23.408;2022-09-12T10:24:54;94766.44;;;20.33;52.65
19761;BME280;10039;42.632;23.408;2022-09-12T10:27:23;94770.56;;;20.23;52.33
19761;BME280;10039;42.632;23.408;2022-09-12T10:29:52;94783.19;;;20.31;52.64
19761;BME280;10039;42.632;23.408;2022-09-12T10:32:26;94781.34;;;20.42;52.96
19761;BME280;10039;42.632;23.408;2022-09-12T10:34:58;94756.94;;;20.42;52.78
19761;BME280;10039;42.632;23.408;2022-09-12T10:37:33;94778.56;;;20.62;52.24
19761;BME280;10039;42.632;23.408;2022-09-12T10:40:00;94769.13;;;20.52;53.10
19761;BME280;10039;42.632;23.408;2022-09-12T10:42:52;94782.66;;;20.78;53.27
19761;BME280;10039;42.632;23.408;2022-09-12T10:45:29;94785.97;;;20.87;53.19
19761;BME280;10039;42.632;23.408;2022-09-12T10:47:57;94770.00;;;20.69;52.86
19761;BME280;10039;42.632;23.408;2022-09-12T10:50:43;94770.78;;;20.75;52.42
19761;BME280;10039;42.632;23.408;2022-09-12T10:53:31;94779.56;;;20.90;53.80
19761;BME280;10039;42.632;23.408;2022-09-12T10:56:09;94773.72;;;20.97;52.72
19761;BME280;10039;42.632;23.408;2022-09-12T11:01:48;94778.97;;;21.06;51.56
19761;BME280;10039;42.632;23.408;2022-09-12T11:07:36;94786.81;;;20.99;51.36
19761;BME280;10039;42.632;23.408;2022-09-12T11:15:33;94774.88;;;20.85;51.44
19761;BME280;10039;42.632;23.408;2022-09-12T11:43:06;94755.88;;;20.60;50.83
19761;BME280;10039;42.632;23.408;2022-09-12T11:45:40;94773.72;;;20.72;48.91
19761;BME280;10039;42.632;23.408;2022-09-12T11:48:12;94761.06;;;20.63;49.85
19761;BME280;10039;42.632;23.408;2022-09-12T11:50:39;94761.50;;;20.56;51.13
19761;BME280;10039;42.632;23.408;2022-09-12T11:53:17;94764.72;;;20.60;50.42
19761;BME280;10039;42.632;23.408;2022-09-12T11:56:04;94769.16;;;20.58;51.42
19761;BME280;10039;42.632;23.408;2022-09-12T11:58:34;94740.41;;;20.40;51.88
19761;BME280;10039;42.632;23.408;2022-09-12T12:01:40;94781.38;;;20.73;52.41
19761;BME280;10039;42.632;23.408;2022-09-12T12:04:11;94775.31;;;20.58;51.70
19761;BME280;10039;42.632;23.408;2022-09-12T12:07:04;94779.25;;;20.57;51.67
19761;BME280;10039;42.632;23.408;2022-09-12T12:09:30;94750.84;;;20.28;52.52
19761;BME280;10039;42.632;23.408;2022-09-12T12:11:57;94754.28;;;20.23;53.18
19761;BME280;10039;42.632;23.408;2022-09-12T12:17:02;94747.47;;;20.58;52.52
19761;BME280;10039;42.632;23.408;2022-09-12T12:19:35;94762.66;;;20.75;52.80
19761;BME280;10039;42.632;23.408;2022-09-12T12:22:18;94767.03;;;20.93;52.82
19761;BME280;10039;42.632;23.408;2022-09-12T12:32:59;94749.97;;;20.92;51.95
19761;BME280;10039;42.632;23.408;2022-09-12T12:35:40;94759.97;;;21.06;51.42
19761;BME280;10039;42.632;23.408;2022-09-12T12:38:37;94752.59;;;21.12;51.86
19761;BME280;10039;42.632;23.408;2022-09-12T12:43:41;94750.34;;;21.05;51.60
19761;BME280;10039;42.632;23.408;2022-09-12T12:46:10;94754.53;;;21.06;51.77
19761;BME280;10039;42.632;23.408;2022-09-12T12:48:47;94752.66;;;20.87;51.74
19761;BME280;10039;42.632;23.408;2022-09-12T12:53:52;94753.16;;;20.60;51.78
19761;BME280;10039;42.632;23.408;2022-09-12T12:56:26;94777.75;;;20.56;51.75
19761;BME280;10039;42.632;23.408;2022-09-12T12:59:03;94731.63;;;20.26;51.93
19761;BME280;10039;42.632;23.408;2022-09-12T13:01:36;94748.41;;;20.55;52.43
19761;BME280;10039;42.632;23.408;2022-09-12T13:04:26;94767.31;;;20.75;52.82
19761;BME280;10039;42.632;23.408;2022-09-12T13:09:42;94771.94;;;20.94;52.37
19761;BME280;10039;42.632;23.408;2022-09-12T13:12:17;94756.06;;;20.82;51.26
19761;BME280;10039;42.632;23.408;2022-09-12T13:14:54;94780.22;;;20.80;50.89
19761;BME280;10039;42.632;23.408;2022-09-12T13:17:25;94772.97;;;20.71;51.32
19761;BME280;10039;42.632;23.408;2022-09-12T13:20:27;94765.34;;;20.70;51.70
19761;BME280;10039;42.632;23.408;2022-09-12T13:22:55;94780.06;;;20.63;51.87
19761;BME280;10039;42.632;23.408;2022-09-12T13:25:35;94773.22;;;20.68;52.36
19761;BME280;10039;42.632;23.408;2022-09-12T13:30:27;94777.19;;;20.72;51.46
19761;BME280;10039;42.632;23.408;2022-09-12T13:33:04;94756.06;;;20.56;52.11
19761;BME280;10039;42.632;23.408;2022-09-12T13:35:45;94729.44;;;20.55;52.03
19761;BME280;10039;42.632;23.408;2022-09-12T13:41:41;94742.31;;;20.85;51.40
19761;BME280;10039;42.632;23.408;2022-09-12T13:44:14;94765.56;;;20.97;50.70
19761;BME280;10039;42.632;23.408;2022-09-12T13:46:40;94764.88;;;21.02;50.78
19761;BME280;10039;42.632;23.408;2022-09-12T13:51:44;94756.03;;;21.07;51.88
19761;BME280;10039;42.632;23.408;2022-09-12T13:54:15;94741.97;;;21.09;50.91
19761;BME280;10039;42.632;23.408;2022-09-12T13:56:47;94743.91;;;21.03;52.13
19761;BME280;10039;42.632;23.408;2022-09-12T13:59:12;94740.56;;;21.19;51.95
19761;BME280;10039;42.632;23.408;2022-09-12T14:01:40;94762.38;;;21.35;51.40
19761;BME280;10039;42.632;23.408;2022-09-12T14:04:18;94760.63;;;21.32;51.29
19761;BME280;10039;42.632;23.408;2022-09-12T14:07:22;94767.31;;;21.37;51.27
19761;BME280;10039;42.632;23.408;2022-09-12T14:09:55;94759.44;;;21.39;50.77
19761;BME280;10039;42.632;23.408;2022-09-12T14:12:34;94752.38;;;21.16;51.43
19761;BME280;10039;42.632;23.408;2022-09-12T14:15:00;94764.63;;;21.06;50.17
19761;BME280;10039;42.632;23.408;2022-09-12T14:17:35;94767.59;;;21.02;50.80
19761;BME280;10039;42.632;23.408;2022-09-12T14:20:14;94742.81;;;20.89;49.87
19761;BME280;10039;42.632;23.408;2022-09-12T14:22:43;94757.25;;;21.06;49.28
19761;BME280;10039;42.632;23.408;2022-09-12T14:25:17;94760.81;;;21.23;50.74
19761;BME280;10039;42.632;23.408;2022-09-12T14:27:50;94741.75;;;21.12;50.45
19761;BME280;10039;42.632;23.408;2022-09-12T14:30:26;94763.09;;;21.30;49.78
19761;BME280;10039;42.632;23.408;2022-09-12T14:35:49;94760.38;;;21.36;50.04
19761;BME280;10039;42.632;23.408;2022-09-12T14:40:52;94755.63;;;21.20;50.27
19761;BME280;10039;42.632;23.408;2022-09-12T14:43:26;94774.47;;;21.34;49.80
19761;BME280;10039;42.632;23.408;2022-09-12T14:46:22;94757.56;;;21.19;49.61
19761;BME280;10039;42.632;23.408;2022-09-12T14:48:57;94766.38;;;21.09;50.50
19761;BME280;10039;42.632;23.408;2022-09-12T14:51:32;94767.31;;;21.00;51.02
19761;BME280;10039;42.632;23.408;2022-09-12T14:53:59;94770.44;;;20.88;50.31
19761;BME280;10039;42.632;23.408;2022-09-12T14:56:42;94768.50;;;20.68;50.37
19761;BME280;10039;42.632;23.408;2022-09-12T15:12:48;94766.72;;;20.60;51.35
19761;BME280;10039;42.632;23.408;2022-09-12T15:15:17;94760.44;;;20.48;51.58
19761;BME280;10039;42.632;23.408;2022-09-12T15:17:43;94754.28;;;20.23;51.61
19761;BME280;10039;42.632;23.408;2022-09-12T15:20:09;94763.19;;;20.29;51.39
19761;BME280;10039;42.632;23.408;2022-09-12T15:22:36;94726.09;;;20.15;52.18
19761;BME280;10039;42.632;23.408;2022-09-12T15:25:02;94765.03;;;20.37;52.13
19761;BME280;10039;42.632;23.408;2022-09-12T15:27:28;94766.06;;;20.45;52.67
19761;BME280;10039;42.632;23.408;2022-09-12T15:29:53;94768.22;;;20.61;52.18
19761;BME280;10039;42.632;23.408;2022-09-12T15:32:26;94766.59;;;20.74;52.37
19761;BME280;10039;42.632;23.408;2022-09-12T15:34:52;94774.47;;;20.72;52.03
19761;BME280;10039;42.632;23.408;2022-09-12T15:37:20;94764.88;;;20.77;52.50
19761;BME280;10039;42.632;23.408;2022-09-12T15:39:47;94766.28;;;20.67;52.81